Time;durP1;ratioP1;P1;durP2;ratioP2;P2;SDS_P1;SDS_P2;PMS_P1;PMS_P2;Temp;Humidity;BMP_temperature;BMP_pressure;BME280_temperature;BME280_humidity;BME280_pressure;Samples;Min_cycle;Max_cycle;Signal;HPM_P1;HPM_P2
2023/10/14 00:02:45;;;;;;;2.97;1.48;;;;;;;16.45;100.00;100017.81;5073550;28;20044;-62
2023/10/14 00:05:35;;;;;;;5.95;1.58;;;;;;;16.47;100.00;100026.53;5074284;28;20113;-63
2023/10/14 00:08:26;;;;;;;2.63;1.40;;;;;;;16.46;100.00;100041.41;5072220;28;20151;-64
2023/10/14 00:11:16;;;;;;;3.92;1.50;;;;;;;16.38;100.00;100042.25;5048181;28;20465;-64
2023/10/14 00:14:10;;;;;;;3.53;1.55;;;;;;;16.26;100.00;100036.59;5053252;28;20508;-64
2023/10/14 00:16:58;;;;;;;2.53;0.90;;;;;;;16.19;100.00;100040.66;5075351;28;20125;-63
2023/10/14 00:19:49;;;;;;;1.50;0.70;;;;;;;16.10;100.00;100056.34;5060359;28;20040;-66
2023/10/14 00:22:39;;;;;;;3.97;1.00;;;;;;;16.10;100.00;100058.28;5060136;28;20052;-65
2023/10/14 00:25:27;;;;;;;1.77;1.15;;;;;;;16.13;100.00;100052.13;5075876;28;20385;-64
2023/10/14 00:28:19;;;;;;;2.47;1.02;;;;;;;16.15;100.00;100071.84;5073472;28;20194;-64
2023/10/14 00:31:10;;;;;;;3.15;1.13;;;;;;;16.13;100.00;100041.13;5058996;28;20047;-65
2023/10/14 00:33:59;;;;;;;1.77;0.90;;;;;;;16.10;100.00;100056.34;5041662;28;20098;-65
2023/10/14 00:36:47;;;;;;;2.33;0.93;;;;;;;16.07;100.00;100062.50;5056849;28;20063;-65
2023/10/14 00:39:36;;;;;;;2.47;0.90;;;;;;;16.04;100.00;100060.38;5041030;28;20095;-63
2023/10/14 00:42:24;;;;;;;3.00;0.80;;;;;;;16.03;100.00;100067.00;5054716;28;20033;-65
2023/10/14 00:45:12;;;;;;;0.70;0.70;;;;;;;16.04;100.00;100081.53;5048753;28;20049;-64
2023/10/14 00:48:06;;;;;;;3.42;1.17;;;;;;;16.08;100.00;100097.06;5075473;28;20060;-64
2023/10/14 00:50:59;;;;;;;2.92;1.10;;;;;;;16.10;100.00;100105.81;5078550;28;20047;-64
2023/10/14 00:53:52;;;;;;;3.67;1.17;;;;;;;16.12;100.00;100120.03;5062133;28;20044;-65
2023/10/14 00:56:41;;;;;;;2.70;1.10;;;;;;;16.08;100.00;100127.31;5063156;28;20044;-64
2023/10/14 00:59:29;;;;;;;2.15;1.00;;;;;;;16.06;100.00;100137.78;5083626;28;20050;-62
2023/10/14 01:02:29;;;;;;;5.10;1.13;;;;;;;16.06;100.00;100142.50;5066977;28;20500;-64
2023/10/14 01:05:21;;;;;;;3.53;0.90;;;;;;;16.01;100.00;100148.94;5079441;28;20068;-65
2023/10/14 01:08:11;;;;;;;4.10;1.10;;;;;;;15.95;100.00;100153.00;5089067;28;20045;-60
2023/10/14 01:11:03;;;;;;;2.58;1.10;;;;;;;15.91;100.00;100141.81;5066017;28;20104;-58
2023/10/14 01:13:52;;;;;;;3.63;1.17;;;;;;;15.89;100.00;100151.50;5080098;28;20098;-63
2023/10/14 01:16:41;;;;;;;3.05;1.30;;;;;;;15.88;100.00;100169.16;5041206;28;20056;-65
2023/10/14 01:19:30;;;;;;;2.35;1.10;;;;;;;15.79;100.00;100177.34;5054593;28;20080;-64
2023/10/14 01:22:19;;;;;;;4.38;1.48;;;;;;;15.59;100.00;100178.72;5054732;28;20059;-64
2023/10/14 01:25:12;;;;;;;6.07;1.58;;;;;;;15.54;100.00;100181.59;5042099;28;20052;-62
2023/10/14 01:28:09;;;;;;;8.55;2.17;;;;;;;15.50;100.00;100180.63;5051563;28;21589;-64
2023/10/14 01:31:38;;;;;;;12.75;2.50;;;;;;;15.53;100.00;100182.72;5068047;28;20106;-63
2023/10/14 01:34:29;;;;;;;5.65;2.00;;;;;;;15.51;100.00;100193.19;5052862;28;20040;-64
2023/10/14 01:37:20;;;;;;;6.30;2.33;;;;;;;15.51;100.00;100207.75;5038830;28;20392;-63
2023/10/14 01:43:15;;;;;;;10.43;2.33;;;;;;;15.41;100.00;100224.50;5072948;28;20120;-66
2023/10/14 01:46:08;;;;;;;8.02;2.28;;;;;;;15.40;100.00;100238.56;5057897;28;20049;-64
2023/10/14 01:49:08;;;;;;;7.90;2.35;;;;;;;15.31;100.00;100250.28;5057379;28;20090;-66
2023/10/14 01:51:59;;;;;;;7.50;2.53;;;;;;;15.22;100.00;100254.09;5072927;28;20598;-67
2023/10/14 01:54:47;;;;;;;10.80;3.05;;;;;;;15.12;100.00;100268.88;5072125;28;20144;-64
2023/10/14 01:57:36;;;;;;;14.07;2.65;;;;;;;15.03;100.00;100270.75;5072021;28;20411;-64
2023/10/14 02:00:24;;;;;;;13.93;3.28;;;;;;;15.05;100.00;100279.47;5042744;28;20052;-64
2023/10/14 02:03:15;;;;;;;13.80;3.00;;;;;;;15.05;100.00;100290.44;5071573;28;20151;-64
2023/10/14 02:06:10;;;;;;;12.27;2.58;;;;;;;15.01;100.00;100301.25;5073003;28;20153;-65
2023/10/14 02:09:00;;;;;;;13.88;3.42;;;;;;;14.99;100.00;100302.69;5057702;28;20105;-65
2023/10/14 02:11:48;;;;;;;12.63;3.00;;;;;;;15.03;100.00;100307.25;5056738;28;20048;-64
2023/10/14 02:14:38;;;;;;;10.90;3.08;;;;;;;15.09;100.00;100324.38;5057943;28;20183;-64
2023/10/14 02:17:28;;;;;;;12.68;3.25;;;;;;;15.12;100.00;100334.72;5044983;28;20044;-64
2023/10/14 02:20:28;;;;;;;9.10;2.72;;;;;;;15.12;100.00;100334.72;5070815;28;20055;-64
2023/10/14 02:23:16;;;;;;;14.90;3.90;;;;;;;15.12;100.00;100340.22;5036797;28;20119;-65
2023/10/14 02:26:08;;;;;;;11.98;2.95;;;;;;;15.12;100.00;100351.19;5051497;28;20071;-64
2023/10/14 02:28:57;;;;;;;11.75;3.60;;;;;;;15.13;100.00;100353.63;5042383;28;20449;-64
2023/10/14 02:31:45;;;;;;;12.57;3.28;;;;;;;15.13;100.00;100374.78;5057498;28;20151;-64
2023/10/14 02:34:34;;;;;;;10.07;3.03;;;;;;;15.08;100.00;100372.13;5071515;28;20394;-64
2023/10/14 02:37:22;;;;;;;9.32;2.85;;;;;;;15.03;100.00;100372.25;5071454;28;20057;-63
2023/10/14 02:40:16;;;;;;;10.63;3.30;;;;;;;15.04;100.00;100388.41;5070572;28;20407;-64
2023/10/14 02:43:04;;;;;;;9.27;2.90;;;;;;;15.05;100.00;100397.44;5061597;28;20053;-64
2023/10/14 02:45:58;;;;;;;10.48;2.60;;;;;;;15.05;100.00;100406.50;5057643;28;20090;-64
2023/10/14 02:48:53;;;;;;;10.57;2.70;;;;;;;15.05;100.00;100420.22;5044802;28;20132;-64
2023/10/14 02:51:45;;;;;;;13.20;3.08;;;;;;;15.05;100.00;100427.63;5069841;28;20178;-63
2023/10/14 02:54:34;;;;;;;15.95;3.90;;;;;;;15.01;100.00;100427.47;5025826;28;20489;-64
2023/10/14 03:00:17;;;;;;;12.25;3.35;;;;;;;14.94;100.00;100449.00;5054092;28;20113;-64
2023/10/14 03:03:10;;;;;;;14.90;3.10;;;;;;;14.85;100.00;100451.63;5066893;28;20044;-64
2023/10/14 03:06:06;;;;;;;11.98;2.97;;;;;;;14.81;100.00;100464.34;5037425;28;20052;-64
2023/10/14 03:09:00;;;;;;;11.38;3.22;;;;;;;14.75;100.00;100473.78;5023306;28;20382;-64
2023/10/14 03:11:48;;;;;;;11.60;3.30;;;;;;;14.72;100.00;100479.06;5050650;28;20132;-64
2023/10/14 03:14:40;;;;;;;13.48;3.40;;;;;;;14.68;100.00;100490.66;5051802;28;20174;-65
2023/10/14 03:17:43;;;;;;;18.88;4.53;;;;;;;14.65;100.00;100490.47;5070933;28;20058;-64
2023/10/14 03:20:36;;;;;;;13.73;3.40;;;;;;;14.64;100.00;100502.53;5070228;28;20044;-64
2023/10/14 03:23:26;;;;;;;12.32;3.67;;;;;;;14.62;100.00;100505.59;5069882;28;20489;-64
2023/10/14 03:26:15;;;;;;;12.50;3.40;;;;;;;14.61;100.00;100514.09;5044322;28;20041;-62
2023/10/14 03:29:05;;;;;;;14.15;3.38;;;;;;;14.59;100.00;100524.56;5057213;28;20095;-62
2023/10/14 03:31:55;;;;;;;9.32;3.13;;;;;;;14.55;100.00;100529.84;5073178;28;20491;-62
2023/10/14 03:34:47;;;;;;;8.65;3.08;;;;;;;14.49;100.00;100544.72;5074001;28;21768;-63
2023/10/14 03:37:40;;;;;;;12.38;3.25;;;;;;;14.45;100.00;100547.22;5075188;28;20071;-63
2023/10/14 03:43:19;;;;;;;13.00;3.10;;;;;;;14.37;100.00;100556.16;5074812;28;20534;-64
2023/10/14 03:46:12;;;;;;;9.48;2.85;;;;;;;14.36;100.00;100559.19;5074066;28;20044;-64
2023/10/14 03:49:22;;;;;;;11.48;3.25;;;;;;;14.35;100.00;100571.28;5074602;28;20040;-64
2023/10/14 03:52:12;;;;;;;15.88;3.42;;;;;;;14.29;100.00;100581.50;5014214;28;20041;-64
2023/10/14 03:55:00;;;;;;;16.20;4.07;;;;;;;14.24;100.00;100585.16;5041124;28;20056;-65
2023/10/14 03:57:51;;;;;;;14.73;3.80;;;;;;;14.17;100.00;100592.13;5054550;28;20424;-65
2023/10/14 04:00:39;;;;;;;14.20;3.40;;;;;;;14.12;100.00;100603.13;5062581;28;20566;-65
2023/10/14 04:03:40;;;;;;;12.38;3.25;;;;;;;14.11;100.00;100601.53;5072260;28;20131;-66
2023/10/14 04:06:34;;;;;;;12.80;3.35;;;;;;;14.12;100.00;100608.63;5059792;28;20416;-66
2023/10/14 04:09:24;;;;;;;16.20;3.33;;;;;;;14.12;100.00;100617.69;5057987;28;20114;-66
2023/10/14 04:13:04;;;;;;;13.30;3.53;;;;;;;14.13;100.00;100618.47;5071763;28;20052;-65
2023/10/14 04:18:24;;;;;;;10.32;2.92;;;;;;;14.10;100.00;100630.03;5072592;28;20041;-67
2023/10/14 04:21:19;;;;;;;12.90;3.08;;;;;;;14.09;100.00;100642.09;5072823;28;20048;-65
2023/10/14 04:30:11;;;;;;;15.82;3.60;;;;;;;13.99;100.00;100654.00;5074728;28;20124;-66
2023/10/14 04:45:07;;;;;;;14.40;3.80;;;;;;;13.73;100.00;100684.47;5073456;28;20550;-65
2023/10/14 04:47:55;;;;;;;15.15;3.30;;;;;;;13.69;100.00;100693.56;5074540;28;20045;-64
2023/10/14 04:50:44;;;;;;;14.48;3.90;;;;;;;13.62;100.00;100699.41;5071337;28;20037;-62
2023/10/14 04:53:32;;;;;;;16.55;4.15;;;;;;;13.61;100.00;100704.06;5060689;28;20048;-63
2023/10/14 04:56:29;;;;;;;14.40;3.53;;;;;;;13.67;100.00;100704.00;5060477;28;20044;-63
2023/10/14 04:59:24;;;;;;;12.40;3.35;;;;;;;13.69;100.00;100710.81;5073213;28;20169;-64
2023/10/14 05:02:20;;;;;;;15.80;3.47;;;;;;;13.62;100.00;100716.63;5052921;28;20044;-63
2023/10/14 05:05:10;;;;;;;8.98;2.75;;;;;;;13.63;100.00;100722.91;5059211;28;20048;-62
2023/10/14 05:07:59;;;;;;;14.27;3.40;;;;;;;13.70;100.00;100725.31;5073949;28;20040;-64
2023/10/14 05:10:50;;;;;;;10.77;3.05;;;;;;;13.73;100.00;100728.28;5060213;28;20079;-64
2023/10/14 05:13:39;;;;;;;13.40;3.28;;;;;;;13.75;100.00;100736.19;5054373;28;20049;-64
2023/10/14 05:16:27;;;;;;;11.45;3.35;;;;;;;13.75;100.00;100747.97;5040809;28;20186;-62
2023/10/14 05:19:23;;;;;;;12.50;3.22;;;;;;;13.73;100.00;100746.63;5073289;28;20137;-64
2023/10/14 05:22:24;;;;;;;9.70;3.17;;;;;;;13.74;100.00;100761.97;5074220;28;20146;-62
2023/10/14 05:25:16;;;;;;;16.95;3.80;;;;;;;13.70;100.00;100766.38;5070121;28;20044;-64
2023/10/14 05:28:06;;;;;;;11.10;2.72;;;;;;;13.68;100.00;100763.13;5076098;28;20036;-59
2023/10/14 05:31:02;;;;;;;13.45;3.10;;;;;;;13.58;100.00;100764.84;5077410;28;20045;-62
2023/10/14 05:33:50;;;;;;;13.32;3.50;;;;;;;13.55;100.00;100775.56;5055349;28;20091;-64
2023/10/14 05:36:39;;;;;;;15.05;3.28;;;;;;;13.48;100.00;100784.13;5060921;28;20095;-62
2023/10/14 05:39:27;;;;;;;15.23;3.70;;;;;;;13.43;100.00;100789.66;5072730;28;20124;-63
2023/10/14 05:42:16;;;;;;;17.30;3.60;;;;;;;13.39;100.00;100800.34;5089514;28;20052;-64
2023/10/14 05:45:05;;;;;;;13.57;3.78;;;;;;;13.38;100.00;100809.66;5063870;28;20389;-64
2023/10/14 05:47:53;;;;;;;11.65;3.25;;;;;;;13.45;100.00;100809.34;5074719;28;20091;-64
2023/10/14 05:50:43;;;;;;;14.82;3.95;;;;;;;13.51;100.00;100813.66;5057503;28;20048;-63
2023/10/14 05:53:31;;;;;;;18.08;3.60;;;;;;;13.53;100.00;100816.91;5067716;28;20044;-64
2023/10/14 05:56:20;;;;;;;15.85;3.70;;;;;;;13.56;100.00;100821.81;5048441;28;20048;-65
2023/10/14 05:59:09;;;;;;;13.52;3.35;;;;;;;13.56;100.00;100816.34;5069611;28;20043;-66
2023/10/14 06:01:58;;;;;;;11.52;3.50;;;;;;;13.57;100.00;100833.59;4701810;28;10001166;-65
2023/10/14 06:04:50;;;;;;;11.80;3.22;;;;;;;13.58;100.00;100830.56;5051370;28;20060;-65
2023/10/14 06:07:39;;;;;;;14.07;3.30;;;;;;;13.53;100.00;100836.09;5064458;28;20036;-63
2023/10/14 06:10:29;;;;;;;14.45;3.72;;;;;;;13.53;100.00;100844.28;5068565;28;20055;-64
2023/10/14 06:13:17;;;;;;;11.93;2.95;;;;;;;13.43;100.00;100856.16;5055038;28;20405;-65
2023/10/14 06:16:10;;;;;;;13.65;3.33;;;;;;;13.45;100.00;100866.81;5056447;28;20052;-65
2023/10/14 06:19:04;;;;;;;9.32;3.05;;;;;;;13.45;100.00;100875.03;5055976;28;20052;-66
2023/10/14 06:21:52;;;;;;;10.43;3.25;;;;;;;13.44;100.00;100878.84;5057177;28;20136;-66
2023/10/14 06:24:42;;;;;;;16.17;3.60;;;;;;;13.39;100.00;100887.09;5065102;28;20097;-66
2023/10/14 06:27:31;;;;;;;10.63;3.08;;;;;;;13.37;100.00;100886.56;5069604;28;20538;-66
2023/10/14 06:30:19;;;;;;;12.35;3.50;;;;;;;13.39;100.00;100887.91;5072061;28;20056;-66
2023/10/14 06:33:07;;;;;;;12.70;3.42;;;;;;;13.39;100.00;100898.06;5072475;28;20044;-64
2023/10/14 06:36:03;;;;;;;11.00;3.03;;;;;;;13.36;100.00;100904.09;5055940;28;20068;-64
2023/10/14 06:38:51;;;;;;;10.57;3.38;;;;;;;13.35;100.00;100913.44;5065142;28;20501;-65
2023/10/14 06:41:43;;;;;;;13.88;4.00;;;;;;;13.37;100.00;100911.19;5054693;28;20055;-64
2023/10/14 06:44:33;;;;;;;13.70;3.10;;;;;;;13.38;100.00;100923.81;5036719;28;20049;-65
2023/10/14 06:47:22;;;;;;;12.55;3.35;;;;;;;13.38;100.00;100932.00;5050866;28;20137;-63
2023/10/14 06:50:12;;;;;;;12.95;3.28;;;;;;;13.34;100.00;100925.47;5067754;28;20052;-64
2023/10/14 06:53:00;;;;;;;12.52;3.65;;;;;;;13.33;100.00;100935.59;5058479;28;20782;-64
2023/10/14 06:55:50;;;;;;;10.70;2.90;;;;;;;13.37;100.00;100944.88;5068561;28;20171;-64
2023/10/14 06:58:39;;;;;;;14.55;3.42;;;;;;;13.35;100.00;100938.88;5034253;28;20049;-64
2023/10/14 07:01:28;;;;;;;10.93;3.03;;;;;;;13.39;100.00;100953.59;5033941;28;20143;-64
2023/10/14 07:04:17;;;;;;;12.93;3.83;;;;;;;13.40;100.00;100959.91;5053116;28;20045;-64
2023/10/14 07:07:08;;;;;;;11.50;3.38;;;;;;;13.39;100.00;100964.56;5068331;28;20127;-66
2023/10/14 07:10:01;;;;;;;16.48;3.10;;;;;;;13.38;100.00;100967.59;5071819;28;20052;-64
2023/10/14 07:12:50;;;;;;;11.52;3.28;;;;;;;13.38;100.00;100970.31;5057830;28;20520;-64
2023/10/14 07:15:39;;;;;;;12.63;3.45;;;;;;;13.37;100.00;100982.34;5037069;28;20061;-65
2023/10/14 07:18:28;;;;;;;14.93;3.05;;;;;;;13.38;100.00;100981.28;5055399;28;20049;-64
2023/10/14 07:21:19;;;;;;;16.85;3.78;;;;;;;13.40;100.00;100987.28;5045622;28;20044;-65
2023/10/14 07:24:09;;;;;;;14.63;4.00;;;;;;;13.39;100.00;100993.84;5067240;28;20497;-63
2023/10/14 07:26:57;;;;;;;12.20;3.30;;;;;;;13.37;100.00;100998.78;5060569;28;20452;-65
2023/10/14 07:29:46;;;;;;;11.35;3.20;;;;;;;13.37;100.00;101004.25;5061563;28;20052;-62
2023/10/14 07:32:34;;;;;;;12.18;3.53;;;;;;;13.38;100.00;101008.63;5076809;28;20099;-61
2023/10/14 07:35:24;;;;;;;13.85;3.50;;;;;;;13.40;100.00;101014.66;5076647;28;20062;-61
2023/10/14 07:38:12;;;;;;;12.30;3.67;;;;;;;13.38;100.00;101023.13;5060605;28;20217;-60
2023/10/14 07:41:01;;;;;;;12.30;3.22;;;;;;;13.40;100.00;101025.59;5075835;28;20049;-63
2023/10/14 07:43:49;;;;;;;11.32;3.33;;;;;;;13.43;100.00;101033.25;5075789;28;20056;-63
2023/10/14 07:46:37;;;;;;;15.60;3.72;;;;;;;13.43;100.00;101033.25;5075653;28;20041;-64
2023/10/14 07:49:25;;;;;;;15.98;4.05;;;;;;;13.42;100.00;101039.81;5076434;28;20044;-64
2023/10/14 07:52:14;;;;;;;15.93;3.95;;;;;;;13.42;100.00;101039.81;5059136;28;20059;-65
2023/10/14 07:55:04;;;;;;;18.15;4.10;;;;;;;13.40;100.00;101042.03;5075547;28;20060;-65
2023/10/14 07:57:53;;;;;;;12.77;3.42;;;;;;;13.34;100.00;101043.13;5076284;28;20055;-65
2023/10/14 08:00:48;;;;;;;10.52;3.53;;;;;;;13.34;100.00;101051.34;5073268;28;20079;-65
2023/10/14 08:03:38;;;;;;;11.30;3.50;;;;;;;13.35;100.00;101055.75;5057151;28;20150;-64
2023/10/14 08:06:26;;;;;;;11.77;3.28;;;;;;;13.35;100.00;101055.75;5061248;28;20049;-64
2023/10/14 08:09:24;;;;;;;12.85;3.47;;;;;;;13.34;100.00;101059.56;5060047;28;20044;-64
2023/10/14 08:12:14;;;;;;;15.65;3.90;;;;;;;13.35;100.00;101067.50;5073495;28;20045;-63
2023/10/14 08:15:05;;;;;;;14.43;4.00;;;;;;;13.34;100.00;101075.97;5064685;28;20518;-64
2023/10/14 08:17:57;;;;;;;15.70;3.80;;;;;;;13.33;100.00;101074.34;5060765;28;20404;-62
2023/10/14 08:20:45;;;;;;;11.82;3.13;;;;;;;13.28;100.00;101077.94;5073471;28;20154;-63
2023/10/14 08:23:33;;;;;;;14.25;3.70;;;;;;;13.32;100.00;101078.16;5075122;28;20178;-65
2023/10/14 08:26:26;;;;;;;12.68;3.55;;;;;;;13.34;100.00;101081.44;5074547;28;20036;-66
2023/10/14 08:29:14;;;;;;;12.73;3.25;;;;;;;13.34;100.00;101092.41;5075057;28;20048;-64
2023/10/14 08:32:03;;;;;;;15.63;4.22;;;;;;;13.38;100.00;101093.50;5036605;28;20072;-65
2023/10/14 08:34:51;;;;;;;12.35;3.85;;;;;;;13.41;100.00;101092.91;5054167;28;20092;-64
2023/10/14 08:37:39;;;;;;;14.50;3.60;;;;;;;13.42;98.87;101097.28;5072295;28;20127;-65
2023/10/14 08:40:29;;;;;;;13.68;3.47;;;;;;;13.41;99.82;101092.91;5072604;28;20047;-65
2023/10/14 08:43:22;;;;;;;15.70;4.50;;;;;;;13.43;98.73;101107.16;5074223;28;20076;-65
2023/10/14 08:46:11;;;;;;;13.85;3.53;;;;;;;13.45;98.46;101115.91;5073726;28;20072;-65
2023/10/14 08:49:03;;;;;;;11.23;3.40;;;;;;;13.43;97.54;101118.09;5043714;28;20044;-66
2023/10/14 08:51:53;;;;;;;15.82;4.20;;;;;;;13.43;95.93;101126.31;5065885;28;20044;-66
2023/10/14 08:54:42;;;;;;;15.43;3.70;;;;;;;13.45;96.57;101132.31;5026940;28;20457;-64
2023/10/14 08:57:31;;;;;;;21.48;4.32;;;;;;;13.46;96.31;101133.13;5045399;28;20358;-64
2023/10/14 09:00:20;;;;;;;15.57;3.63;;;;;;;13.49;95.91;101140.78;5072737;28;20079;-66
2023/10/14 09:03:12;;;;;;;17.30;4.38;;;;;;;13.50;96.02;101140.50;5046074;28;20051;-65
2023/10/14 09:06:01;;;;;;;17.98;4.47;;;;;;;13.54;96.32;101147.06;5045610;28;20127;-65
2023/10/14 09:08:49;;;;;;;14.00;3.65;;;;;;;13.61;96.17;101150.34;5045194;28;20490;-65
2023/10/14 09:11:37;;;;;;;11.77;3.13;;;;;;;13.65;95.64;101147.84;5068876;28;20047;-65
2023/10/14 09:14:25;;;;;;;15.98;3.47;;;;;;;13.68;94.78;101158.22;5074951;28;20052;-65
2023/10/14 09:17:15;;;;;;;11.63;3.00;;;;;;;13.68;94.79;101150.00;5074192;28;20534;-66
2023/10/14 09:20:04;;;;;;;12.02;3.67;;;;;;;13.69;95.23;101159.88;5061660;28;20595;-65
2023/10/14 09:22:52;;;;;;;11.70;3.50;;;;;;;13.69;94.50;101156.31;5060423;28;20173;-65
2023/10/14 09:25:42;;;;;;;13.90;3.67;;;;;;;13.67;94.34;101158.53;5032238;28;20045;-64
2023/10/14 09:28:34;;;;;;;15.35;4.10;;;;;;;13.62;93.73;101165.66;5045221;28;20048;-66
2023/10/14 09:31:26;;;;;;;14.65;3.85;;;;;;;13.64;94.20;101149.75;5073963;28;20114;-64
2023/10/14 09:34:24;;;;;;;15.85;3.58;;;;;;;13.68;93.60;101162.88;5045146;28;20128;-64
2023/10/14 09:37:12;;;;;;;13.77;3.60;;;;;;;13.73;92.53;101160.13;5058459;28;20044;-64
2023/10/14 09:40:08;;;;;;;11.25;3.28;;;;;;;13.74;92.38;101161.78;5072273;28;20148;-64
2023/10/14 09:42:57;;;;;;;11.25;3.03;;;;;;;13.77;94.86;101161.22;5055923;28;20409;-65
2023/10/14 09:45:47;;;;;;;15.85;3.95;;;;;;;13.71;89.07;101171.38;5065586;28;20373;-64
2023/10/14 09:48:40;;;;;;;10.18;3.00;;;;;;;13.73;90.13;101173.81;5057864;28;20049;-66
2023/10/14 09:51:28;;;;;;;16.63;3.58;;;;;;;13.81;90.36;101167.78;5044748;28;20048;-64
2023/10/14 09:54:17;;;;;;;12.10;3.53;;;;;;;13.82;88.22;101183.91;5060033;28;20045;-65
2023/10/14 09:57:06;;;;;;;16.50;4.03;;;;;;;13.78;86.36;101187.47;5075199;28;20048;-61
2023/10/14 09:59:54;;;;;;;13.20;3.90;;;;;;;13.76;84.20;101187.78;5071445;28;20121;-61
2023/10/14 10:02:44;;;;;;;13.90;3.45;;;;;;;13.75;83.34;101191.59;5050087;28;20041;-63
2023/10/14 10:05:39;;;;;;;16.00;3.80;;;;;;;13.77;83.93;101194.88;5046304;28;20118;-64
2023/10/14 10:08:46;;;;;;;11.15;3.38;;;;;;;13.72;82.25;101199.56;5053035;28;20076;-59
2023/10/14 10:11:36;;;;;;;14.02;3.70;;;;;;;13.78;82.86;101195.69;5071942;28;20069;-63
2023/10/14 10:14:28;;;;;;;11.38;3.25;;;;;;;13.83;82.13;101190.22;5044508;28;20045;-65
2023/10/14 10:17:16;;;;;;;20.08;4.30;;;;;;;13.87;83.18;101188.53;5040128;28;20056;-65
2023/10/14 10:20:11;;;;;;;14.23;4.03;;;;;;;13.87;83.44;101215.13;5042722;28;20041;-64
2023/10/14 10:23:01;;;;;;;15.80;3.72;;;;;;;13.79;78.37;101208.31;5039883;28;20049;-63
2023/10/14 10:25:51;;;;;;;14.48;3.75;;;;;;;13.75;78.32;101212.69;5038681;28;20040;-64
2023/10/14 10:28:40;;;;;;;11.93;3.70;;;;;;;13.69;78.36;101214.66;5057480;28;20041;-65
2023/10/14 10:31:28;;;;;;;16.83;3.60;;;;;;;13.60;77.79;101216.31;5057855;28;20060;-64
2023/10/14 10:34:18;;;;;;;13.90;3.67;;;;;;;13.60;78.98;101219.88;5072232;28;20098;-64
2023/10/14 10:37:07;;;;;;;16.15;3.75;;;;;;;13.64;77.30;101220.16;5057852;28;20041;-66
2023/10/14 10:39:55;;;;;;;15.52;3.88;;;;;;;13.68;76.90;101215.72;5067331;28;20528;-66
2023/10/14 10:42:48;;;;;;;15.70;4.57;;;;;;;13.74;75.45;101222.03;5046743;28;20123;-65
2023/10/14 10:45:40;;;;;;;12.63;4.00;;;;;;;13.82;75.05;101232.38;4720477;28;10001091;-66
2023/10/14 10:48:39;;;;;;;15.77;3.42;;;;;;;13.88;73.68;101216.75;5045588;28;20063;-65
2023/10/14 10:51:31;;;;;;;15.18;3.47;;;;;;;13.93;72.08;101227.72;5071459;28;20067;-64
2023/10/14 10:54:22;;;;;;;13.90;3.92;;;;;;;14.04;73.00;101232.84;5072842;28;20056;-65
2023/10/14 10:57:13;;;;;;;13.15;3.17;;;;;;;14.04;72.48;101226.53;5071693;28;20048;-65
2023/10/14 11:00:09;;;;;;;14.63;3.53;;;;;;;14.07;71.60;101226.81;5071584;28;20052;-64
2023/10/14 11:03:01;;;;;;;12.10;3.42;;;;;;;14.12;70.85;101233.34;5072982;28;20060;-65
2023/10/14 11:05:50;;;;;;;12.40;3.10;;;;;;;14.17;69.73;101238.84;5058047;28;20064;-66
2023/10/14 11:08:38;;;;;;;13.23;3.78;;;;;;;14.14;68.21;101240.22;5070839;28;20846;-65
2023/10/14 11:11:30;;;;;;;14.95;3.78;;;;;;;14.09;68.52;101233.91;5025241;28;20776;-66
2023/10/14 11:14:19;;;;;;;16.42;3.85;;;;;;;13.99;69.19;101245.75;5025150;28;20052;-66
2023/10/14 11:17:16;;;;;;;14.85;4.25;;;;;;;13.98;69.40;101233.97;5042843;28;20501;-64
2023/10/14 11:20:07;;;;;;;11.90;3.72;;;;;;;14.05;71.21;101234.50;5055008;28;20087;-65
2023/10/14 11:22:56;;;;;;;13.63;3.50;;;;;;;14.12;70.64;101238.81;5060724;28;20055;-64
2023/10/14 11:25:49;;;;;;;15.15;4.22;;;;;;;14.16;71.40;101242.66;5072291;28;20049;-65
2023/10/14 11:28:39;;;;;;;13.02;3.55;;;;;;;14.18;71.62;101245.94;5057666;28;20131;-63
2023/10/14 11:31:27;;;;;;;13.70;3.20;;;;;;;14.24;71.71;101236.59;5063667;28;20044;-65
2023/10/14 11:34:15;;;;;;;13.20;3.47;;;;;;;14.25;71.31;101232.75;5049453;28;20044;-64
2023/10/14 11:37:06;;;;;;;14.10;3.22;;;;;;;14.29;71.05;101233.81;5072703;28;20048;-64
2023/10/14 11:39:54;;;;;;;15.07;3.42;;;;;;;14.35;69.67;101249.13;5059614;28;20051;-65
2023/10/14 11:42:43;;;;;;;13.93;3.30;;;;;;;14.33;66.02;101245.03;5079630;28;20056;-63
2023/10/14 11:45:40;;;;;;;13.27;3.30;;;;;;;14.24;65.67;101245.63;5060178;28;20055;-63
2023/10/14 11:48:33;;;;;;;9.73;3.45;;;;;;;14.24;66.62;101248.38;5053386;28;20175;-64
2023/10/14 11:51:21;;;;;;;11.02;2.97;;;;;;;14.22;64.74;101263.47;5046076;28;20045;-62
2023/10/14 11:54:13;;;;;;;13.80;3.00;;;;;;;14.20;65.27;101251.97;5068522;28;20565;-64
2023/10/14 11:57:01;;;;;;;12.82;3.50;;;;;;;14.22;64.30;101252.50;5070924;28;20143;-64
2023/10/14 11:59:49;;;;;;;18.40;3.80;;;;;;;14.26;64.16;101256.28;5074478;28;20075;-65
2023/10/14 12:02:40;;;;;;;10.70;3.53;;;;;;;14.25;64.69;101260.97;5072616;28;20067;-65
2023/10/14 12:05:28;;;;;;;15.13;3.70;;;;;;;14.21;64.82;101272.78;5070043;28;20068;-64
2023/10/14 12:08:22;;;;;;;16.60;3.72;;;;;;;14.10;65.32;101262.97;5054956;28;20167;-65
2023/10/14 12:11:13;;;;;;;11.65;3.63;;;;;;;14.02;67.83;101270.69;5071829;28;20053;-65
2023/10/14 12:14:03;;;;;;;13.27;3.40;;;;;;;13.92;66.82;101270.69;5056438;28;20074;-65
2023/10/14 12:16:51;;;;;;;17.38;3.53;;;;;;;13.88;66.21;101266.91;5042783;28;20415;-64
2023/10/14 12:19:40;;;;;;;11.20;3.25;;;;;;;13.87;66.93;101267.97;5052540;28;20056;-64
2023/10/14 12:22:29;;;;;;;13.35;3.45;;;;;;;13.90;66.00;101267.41;5069466;28;20186;-65
2023/10/14 12:25:17;;;;;;;14.30;3.50;;;;;;;13.93;66.82;101264.13;5067322;28;20083;-64
2023/10/14 12:28:06;;;;;;;13.52;3.85;;;;;;;13.92;67.54;101278.91;5070556;28;20160;-64
2023/10/14 12:31:06;;;;;;;12.00;3.28;;;;;;;13.91;66.66;101269.06;5069467;28;20124;-66
2023/10/14 12:33:54;;;;;;;9.30;3.10;;;;;;;13.94;68.06;101276.72;5058187;28;20424;-67
2023/10/14 12:36:45;;;;;;;14.63;3.55;;;;;;;13.92;67.38;101294.53;5070887;28;20048;-67
2023/10/14 12:39:43;;;;;;;10.02;3.45;;;;;;;13.82;66.71;101285.25;5055004;28;20507;-66
2023/10/14 12:42:47;;;;;;;12.05;3.28;;;;;;;13.83;67.51;101286.09;5055123;28;20422;-67
2023/10/14 12:45:36;;;;;;;12.23;3.17;;;;;;;13.87;67.54;101287.16;5039289;28;20048;-67
2023/10/14 12:48:24;;;;;;;13.43;3.22;;;;;;;13.97;68.50;101291.78;5043083;28;20128;-67
2023/10/14 12:51:30;;;;;;;14.50;3.50;;;;;;;14.01;67.70;101290.94;5070559;28;20072;-66
2023/10/14 12:54:18;;;;;;;11.00;3.03;;;;;;;14.03;67.30;101285.19;5058457;28;20048;-65
2023/10/14 12:57:08;;;;;;;13.25;3.50;;;;;;;13.98;65.54;101301.66;5070044;28;20052;-67
2023/10/14 12:59:56;;;;;;;10.55;3.17;;;;;;;13.98;65.57;101290.69;5056378;28;20420;-67
2023/10/14 13:02:49;;;;;;;12.57;3.28;;;;;;;14.06;67.61;101290.09;5019967;28;20061;-65
2023/10/14 13:05:38;;;;;;;13.00;3.42;;;;;;;14.10;67.69;101296.69;5048731;28;20074;-65
2023/10/14 13:08:26;;;;;;;18.05;3.80;;;;;;;14.15;70.05;101320.50;5055027;28;20052;-66
2023/10/14 13:11:17;;;;;;;21.42;5.40;;;;;;;13.94;77.81;101350.69;5066020;28;20052;-64
2023/10/14 13:14:05;;;;;;;14.00;3.67;;;;;;;13.47;84.91;101342.81;5057373;28;20131;-66
2023/10/14 13:16:55;;;;;;;10.68;3.30;;;;;;;13.33;88.89;101345.28;5070642;28;20663;-67
2023/10/14 13:19:44;;;;;;;10.45;3.20;;;;;;;13.21;92.33;101340.88;5035175;28;20147;-66
2023/10/14 13:22:32;;;;;;;12.65;3.33;;;;;;;13.21;94.82;101340.88;5058054;28;20048;-66
2023/10/14 13:25:21;;;;;;;11.15;3.08;;;;;;;13.29;96.66;101335.97;5068221;28;20515;-67
2023/10/14 13:28:11;;;;;;;12.63;3.28;;;;;;;13.34;94.83;101333.25;5069272;28;20123;-68
2023/10/14 13:30:59;;;;;;;13.60;3.13;;;;;;;13.38;86.94;101339.81;5069758;28;20087;-67
2023/10/14 13:33:47;;;;;;;10.75;3.53;;;;;;;13.43;84.94;101348.84;5050104;28;20048;-66